Potts Camp, Mississippi
Current Conditions -  °F | °C
As of 4:35 PM on Friday 31 Oct 2014 (Local Time) from KUOX Reporting Station
Few Clouds Few Clouds  
Wind Chill: 54°   Ceiling: Unl
Heat Index: 54°   Visibility: 8mi
Dew Point: 37°   Wind: 20mph
Humidity: 54%   Direction: 330°NNW
Pressure: 30.15"   Gusts: 25mph
Location:  34.65°N, 89.31°W
Report Text: KUOX 312135Z AUTO 33017G22KT 8SM FEW033 FEW048 12/03 A3015 RMK AO2 PWINO PNO
Loading
Personal Weather Stations






























Interactive Weather Map
Tropical Storm Tracking
New forecast layout! Learn more

10-Day Weather Forecast

Advertisements
Track Severe Weather on mobile